sensor_id;sensor_type;location;lat;lon;timestamp;P1;durP1;ratioP1;P2;durP2;ratioP2
60060;SDS011;45933;51.336;12.612;2022-11-18T00:01:05;16.47;;;11.77;;
60060;SDS011;45933;51.336;12.612;2022-11-18T00:03:32;15.03;;;11.70;;
60060;SDS011;45933;51.336;12.612;2022-11-18T00:05:58;15.43;;;12.20;;
60060;SDS011;45933;51.336;12.612;2022-11-18T00:08:24;17.37;;;12.50;;
60060;SDS011;45933;51.336;12.612;2022-11-18T00:10:49;15.57;;;12.30;;
60060;SDS011;45933;51.336;12.612;2022-11-18T00:13:15;19.03;;;13.47;;
60060;SDS011;45933;51.336;12.612;2022-11-18T00:16:08;17.30;;;13.23;;
60060;SDS011;45933;51.336;12.612;2022-11-18T00:18:35;17.63;;;12.63;;
60060;SDS011;45933;51.336;12.612;2022-11-18T00:21:02;18.60;;;14.17;;
60060;SDS011;45933;51.336;12.612;2022-11-18T00:23:28;17.83;;;13.90;;
60060;SDS011;45933;51.336;12.612;2022-11-18T00:25:54;17.90;;;13.20;;
60060;SDS011;45933;51.336;12.612;2022-11-18T00:28:19;20.20;;;13.70;;
60060;SDS011;45933;51.336;12.612;2022-11-18T00:30:45;16.50;;;13.37;;
60060;SDS011;45933;51.336;12.612;2022-11-18T00:33:10;20.13;;;15.30;;
60060;SDS011;45933;51.336;12.612;2022-11-18T00:35:36;20.00;;;14.93;;
60060;SDS011;45933;51.336;12.612;2022-11-18T00:38:01;19.80;;;14.47;;
60060;SDS011;45933;51.336;12.612;2022-11-18T00:40:26;21.53;;;15.63;;
60060;SDS011;45933;51.336;12.612;2022-11-18T00:42:52;20.83;;;15.27;;
60060;SDS011;45933;51.336;12.612;2022-11-18T00:45:21;22.40;;;15.57;;
60060;SDS011;45933;51.336;12.612;2022-11-18T00:47:47;20.00;;;15.27;;
60060;SDS011;45933;51.336;12.612;2022-11-18T00:50:12;20.80;;;16.20;;
60060;SDS011;45933;51.336;12.612;2022-11-18T00:52:38;21.03;;;15.70;;
60060;SDS011;45933;51.336;12.612;2022-11-18T00:55:04;18.33;;;14.60;;
60060;SDS011;45933;51.336;12.612;2022-11-18T00:57:29;20.43;;;15.93;;
60060;SDS011;45933;51.336;12.612;2022-11-18T00:59:55;21.30;;;16.10;;
60060;SDS011;45933;51.336;12.612;2022-11-18T01:02:20;21.33;;;15.90;;
60060;SDS011;45933;51.336;12.612;2022-11-18T01:04:46;22.97;;;16.80;;
60060;SDS011;45933;51.336;12.612;2022-11-18T01:07:11;23.20;;;16.67;;
60060;SDS011;45933;51.336;12.612;2022-11-18T01:09:36;21.20;;;16.13;;
60060;SDS011;45933;51.336;12.612;2022-11-18T01:12:02;23.17;;;15.80;;
60060;SDS011;45933;51.336;12.612;2022-11-18T01:14:47;21.77;;;16.00;;
60060;SDS011;45933;51.336;12.612;2022-11-18T01:17:12;22.57;;;16.97;;
60060;SDS011;45933;51.336;12.612;2022-11-18T01:19:37;25.30;;;16.90;;
60060;SDS011;45933;51.336;12.612;2022-11-18T01:22:03;24.63;;;16.43;;
60060;SDS011;45933;51.336;12.612;2022-11-18T01:24:29;23.63;;;16.40;;
60060;SDS011;45933;51.336;12.612;2022-11-18T01:26:56;26.87;;;16.60;;
60060;SDS011;45933;51.336;12.612;2022-11-18T01:29:22;21.60;;;16.73;;
60060;SDS011;45933;51.336;12.612;2022-11-18T01:31:47;28.13;;;17.17;;
60060;SDS011;45933;51.336;12.612;2022-11-18T01:34:12;25.93;;;17.47;;
60060;SDS011;45933;51.336;12.612;2022-11-18T01:36:38;25.57;;;17.10;;
60060;SDS011;45933;51.336;12.612;2022-11-18T01:39:03;27.23;;;17.63;;
60060;SDS011;45933;51.336;12.612;2022-11-18T01:41:28;24.77;;;17.47;;
60060;SDS011;45933;51.336;12.612;2022-11-18T01:46:25;24.90;;;17.87;;
60060;SDS011;45933;51.336;12.612;2022-11-18T01:48:54;27.60;;;17.77;;
60060;SDS011;45933;51.336;12.612;2022-11-18T01:51:25;29.20;;;17.87;;
60060;SDS011;45933;51.336;12.612;2022-11-18T01:54:13;24.33;;;17.17;;
60060;SDS011;45933;51.336;12.612;2022-11-18T01:56:44;25.03;;;17.47;;
60060;SDS011;45933;51.336;12.612;2022-11-18T01:59:18;20.30;;;15.80;;
60060;SDS011;45933;51.336;12.612;2022-11-18T02:01:48;21.67;;;16.50;;
60060;SDS011;45933;51.336;12.612;2022-11-18T02:04:13;24.13;;;17.13;;
60060;SDS011;45933;51.336;12.612;2022-11-18T02:06:40;22.77;;;16.53;;
60060;SDS011;45933;51.336;12.612;2022-11-18T02:09:07;25.27;;;17.30;;
60060;SDS011;45933;51.336;12.612;2022-11-18T02:11:33;26.80;;;17.93;;
60060;SDS011;45933;51.336;12.612;2022-11-18T02:14:20;25.07;;;18.00;;
60060;SDS011;45933;51.336;12.612;2022-11-18T02:17:09;24.50;;;17.27;;
60060;SDS011;45933;51.336;12.612;2022-11-18T02:19:59;24.90;;;17.93;;
60060;SDS011;45933;51.336;12.612;2022-11-18T02:30:40;26.73;;;17.60;;
60060;SDS011;45933;51.336;12.612;2022-11-18T02:33:20;24.70;;;17.03;;
60060;SDS011;45933;51.336;12.612;2022-11-18T02:35:51;26.03;;;17.80;;
60060;SDS011;45933;51.336;12.612;2022-11-18T02:40:56;24.57;;;17.60;;
60060;SDS011;45933;51.336;12.612;2022-11-18T02:43:27;23.40;;;17.03;;
60060;SDS011;45933;51.336;12.612;2022-11-18T02:45:59;23.57;;;16.73;;
60060;SDS011;45933;51.336;12.612;2022-11-18T02:48:29;24.47;;;17.07;;
60060;SDS011;45933;51.336;12.612;2022-11-18T02:50:57;26.57;;;18.13;;
60060;SDS011;45933;51.336;12.612;2022-11-18T02:53:25;24.80;;;17.30;;
60060;SDS011;45933;51.336;12.612;2022-11-18T02:55:54;23.10;;;16.23;;
60060;SDS011;45933;51.336;12.612;2022-11-18T02:58:21;22.60;;;16.63;;
60060;SDS011;45933;51.336;12.612;2022-11-18T03:00:54;22.80;;;16.70;;
60060;SDS011;45933;51.336;12.612;2022-11-18T03:03:34;23.40;;;17.50;;
60060;SDS011;45933;51.336;12.612;2022-11-18T03:08:58;23.70;;;17.00;;
60060;SDS011;45933;51.336;12.612;2022-11-18T03:11:39;22.27;;;16.10;;
60060;SDS011;45933;51.336;12.612;2022-11-18T03:16:58;21.47;;;15.97;;
60060;SDS011;45933;51.336;12.612;2022-11-18T03:22:20;22.67;;;15.87;;
60060;SDS011;45933;51.336;12.612;2022-11-18T03:24:57;24.57;;;16.63;;
60060;SDS011;45933;51.336;12.612;2022-11-18T03:30:16;24.43;;;17.10;;
60060;SDS011;45933;51.336;12.612;2022-11-18T03:32:45;23.33;;;16.90;;
60060;SDS011;45933;51.336;12.612;2022-11-18T03:35:17;22.27;;;15.97;;
60060;SDS011;45933;51.336;12.612;2022-11-18T03:37:48;23.23;;;16.63;;
60060;SDS011;45933;51.336;12.612;2022-11-18T03:40:17;24.10;;;16.70;;
60060;SDS011;45933;51.336;12.612;2022-11-18T03:42:49;23.07;;;16.77;;
60060;SDS011;45933;51.336;12.612;2022-11-18T03:45:19;24.13;;;16.77;;
60060;SDS011;45933;51.336;12.612;2022-11-18T03:47:59;22.97;;;16.60;;
60060;SDS011;45933;51.336;12.612;2022-11-18T03:50:32;26.63;;;18.00;;
60060;SDS011;45933;51.336;12.612;2022-11-18T03:53:03;24.03;;;17.13;;
60060;SDS011;45933;51.336;12.612;2022-11-18T03:55:32;26.13;;;17.77;;
60060;SDS011;45933;51.336;12.612;2022-11-18T04:00:47;28.17;;;17.37;;
60060;SDS011;45933;51.336;12.612;2022-11-18T04:03:21;26.80;;;16.77;;
60060;SDS011;45933;51.336;12.612;2022-11-18T04:05:46;24.30;;;17.63;;
60060;SDS011;45933;51.336;12.612;2022-11-18T04:08:22;27.80;;;18.63;;
60060;SDS011;45933;51.336;12.612;2022-11-18T04:10:55;25.00;;;17.13;;
60060;SDS011;45933;51.336;12.612;2022-11-18T04:13:27;25.73;;;17.10;;
60060;SDS011;45933;51.336;12.612;2022-11-18T04:15:56;24.83;;;16.83;;
60060;SDS011;45933;51.336;12.612;2022-11-18T04:18:21;27.87;;;18.30;;
60060;SDS011;45933;51.336;12.612;2022-11-18T04:20:47;25.90;;;17.47;;
60060;SDS011;45933;51.336;12.612;2022-11-18T04:23:12;26.90;;;17.23;;
60060;SDS011;45933;51.336;12.612;2022-11-18T04:25:38;27.83;;;17.57;;
60060;SDS011;45933;51.336;12.612;2022-11-18T04:28:03;27.97;;;17.47;;
60060;SDS011;45933;51.336;12.612;2022-11-18T04:30:32;26.23;;;17.27;;
60060;SDS011;45933;51.336;12.612;2022-11-18T04:32:57;26.07;;;18.17;;
60060;SDS011;45933;51.336;12.612;2022-11-18T04:35:23;24.30;;;17.63;;
60060;SDS011;45933;51.336;12.612;2022-11-18T04:37:49;27.47;;;18.90;;
60060;SDS011;45933;51.336;12.612;2022-11-18T04:40:14;26.47;;;18.20;;
60060;SDS011;45933;51.336;12.612;2022-11-18T04:42:40;24.00;;;17.47;;
60060;SDS011;45933;51.336;12.612;2022-11-18T04:45:05;26.23;;;18.40;;
60060;SDS011;45933;51.336;12.612;2022-11-18T04:47:32;27.00;;;17.93;;
60060;SDS011;45933;51.336;12.612;2022-11-18T04:49:57;28.07;;;18.07;;
60060;SDS011;45933;51.336;12.612;2022-11-18T04:52:22;25.10;;;17.13;;
60060;SDS011;45933;51.336;12.612;2022-11-18T04:54:48;26.87;;;18.03;;
60060;SDS011;45933;51.336;12.612;2022-11-18T04:57:13;26.97;;;17.13;;
60060;SDS011;45933;51.336;12.612;2022-11-18T04:59:39;26.97;;;17.33;;
60060;SDS011;45933;51.336;12.612;2022-11-18T05:02:04;29.87;;;17.43;;
60060;SDS011;45933;51.336;12.612;2022-11-18T05:04:31;29.30;;;17.83;;
60060;SDS011;45933;51.336;12.612;2022-11-18T05:06:58;26.53;;;17.53;;
60060;SDS011;45933;51.336;12.612;2022-11-18T05:09:25;27.77;;;17.50;;
60060;SDS011;45933;51.336;12.612;2022-11-18T05:11:51;26.60;;;17.20;;
60060;SDS011;45933;51.336;12.612;2022-11-18T05:14:35;28.73;;;17.00;;
60060;SDS011;45933;51.336;12.612;2022-11-18T05:17:02;30.23;;;17.50;;
60060;SDS011;45933;51.336;12.612;2022-11-18T05:19:29;27.23;;;17.77;;
60060;SDS011;45933;51.336;12.612;2022-11-18T05:21:55;29.20;;;18.10;;
60060;SDS011;45933;51.336;12.612;2022-11-18T05:24:21;28.73;;;18.07;;
60060;SDS011;45933;51.336;12.612;2022-11-18T05:26:48;28.77;;;18.10;;
60060;SDS011;45933;51.336;12.612;2022-11-18T05:29:14;25.23;;;17.47;;
60060;SDS011;45933;51.336;12.612;2022-11-18T05:31:40;26.70;;;17.73;;
60060;SDS011;45933;51.336;12.612;2022-11-18T05:34:06;27.93;;;18.43;;
60060;SDS011;45933;51.336;12.612;2022-11-18T05:36:31;29.70;;;17.80;;
60060;SDS011;45933;51.336;12.612;2022-11-18T05:38:57;26.50;;;17.00;;
60060;SDS011;45933;51.336;12.612;2022-11-18T05:41:23;27.63;;;17.27;;
60060;SDS011;45933;51.336;12.612;2022-11-18T05:44:07;32.10;;;19.23;;
60060;SDS011;45933;51.336;12.612;2022-11-18T05:46:32;30.03;;;18.17;;
60060;SDS011;45933;51.336;12.612;2022-11-18T05:48:58;29.33;;;18.67;;
60060;SDS011;45933;51.336;12.612;2022-11-18T05:51:23;27.23;;;17.33;;
60060;SDS011;45933;51.336;12.612;2022-11-18T05:53:49;29.73;;;18.40;;
60060;SDS011;45933;51.336;12.612;2022-11-18T05:56:21;31.23;;;17.97;;
60060;SDS011;45933;51.336;12.612;2022-11-18T05:58:47;30.87;;;18.63;;
60060;SDS011;45933;51.336;12.612;2022-11-18T06:01:18;27.90;;;17.20;;
60060;SDS011;45933;51.336;12.612;2022-11-18T06:03:48;31.23;;;18.33;;
60060;SDS011;45933;51.336;12.612;2022-11-18T06:06:14;31.63;;;18.67;;
60060;SDS011;45933;51.336;12.612;2022-11-18T06:08:46;28.10;;;17.57;;
60060;SDS011;45933;51.336;12.612;2022-11-18T06:11:21;28.20;;;18.07;;
60060;SDS011;45933;51.336;12.612;2022-11-18T06:13:58;27.60;;;18.03;;
60060;SDS011;45933;51.336;12.612;2022-11-18T06:16:29;30.63;;;18.60;;
60060;SDS011;45933;51.336;12.612;2022-11-18T06:18:59;29.67;;;17.60;;
60060;SDS011;45933;51.336;12.612;2022-11-18T06:21:26;33.67;;;19.07;;
60060;SDS011;45933;51.336;12.612;2022-11-18T06:23:52;34.03;;;19.87;;
60060;SDS011;45933;51.336;12.612;2022-11-18T06:26:18;31.13;;;18.73;;
60060;SDS011;45933;51.336;12.612;2022-11-18T06:28:44;34.67;;;18.87;;
60060;SDS011;45933;51.336;12.612;2022-11-18T06:31:11;29.50;;;18.90;;
60060;SDS011;45933;51.336;12.612;2022-11-18T06:33:37;36.13;;;19.63;;
60060;SDS011;45933;51.336;12.612;2022-11-18T06:36:02;29.70;;;18.33;;
60060;SDS011;45933;51.336;12.612;2022-11-18T06:38:28;30.30;;;18.90;;
60060;SDS011;45933;51.336;12.612;2022-11-18T06:40:57;29.20;;;18.83;;
60060;SDS011;45933;51.336;12.612;2022-11-18T06:43:23;31.57;;;18.50;;
60060;SDS011;45933;51.336;12.612;2022-11-18T06:46:04;27.60;;;17.80;;
60060;SDS011;45933;51.336;12.612;2022-11-18T06:48:50;29.17;;;17.93;;
60060;SDS011;45933;51.336;12.612;2022-11-18T06:51:15;29.17;;;18.30;;
60060;SDS011;45933;51.336;12.612;2022-11-18T06:53:41;30.43;;;18.60;;
60060;SDS011;45933;51.336;12.612;2022-11-18T06:56:07;31.47;;;18.73;;
60060;SDS011;45933;51.336;12.612;2022-11-18T06:58:34;31.30;;;18.40;;
60060;SDS011;45933;51.336;12.612;2022-11-18T07:01:16;33.60;;;18.50;;
60060;SDS011;45933;51.336;12.612;2022-11-18T07:03:44;30.40;;;18.60;;
60060;SDS011;45933;51.336;12.612;2022-11-18T07:06:11;32.27;;;19.37;;
60060;SDS011;45933;51.336;12.612;2022-11-18T07:08:38;33.77;;;20.13;;
60060;SDS011;45933;51.336;12.612;2022-11-18T07:11:05;31.03;;;18.33;;
60060;SDS011;45933;51.336;12.612;2022-11-18T07:13:32;30.07;;;18.43;;
60060;SDS011;45933;51.336;12.612;2022-11-18T07:16:02;31.97;;;18.63;;
60060;SDS011;45933;51.336;12.612;2022-11-18T07:18:32;33.63;;;19.40;;
60060;SDS011;45933;51.336;12.612;2022-11-18T07:21:06;33.03;;;20.13;;
60060;SDS011;45933;51.336;12.612;2022-11-18T07:23:34;33.03;;;19.23;;
60060;SDS011;45933;51.336;12.612;2022-11-18T07:25:59;30.87;;;19.10;;
60060;SDS011;45933;51.336;12.612;2022-11-18T07:28:25;35.27;;;20.87;;
60060;SDS011;45933;51.336;12.612;2022-11-18T07:30:52;32.70;;;20.20;;
60060;SDS011;45933;51.336;12.612;2022-11-18T07:33:17;34.70;;;20.70;;
60060;SDS011;45933;51.336;12.612;2022-11-18T07:35:43;30.40;;;19.97;;
60060;SDS011;45933;51.336;12.612;2022-11-18T07:38:08;30.17;;;19.50;;
60060;SDS011;45933;51.336;12.612;2022-11-18T07:40:34;31.37;;;21.10;;
60060;SDS011;45933;51.336;12.612;2022-11-18T07:42:59;35.93;;;21.80;;
60060;SDS011;45933;51.336;12.612;2022-11-18T07:45:24;33.33;;;20.33;;
60060;SDS011;45933;51.336;12.612;2022-11-18T07:47:50;37.53;;;21.23;;
60060;SDS011;45933;51.336;12.612;2022-11-18T07:50:16;41.93;;;22.03;;
60060;SDS011;45933;51.336;12.612;2022-11-18T07:52:42;34.77;;;21.37;;
60060;SDS011;45933;51.336;12.612;2022-11-18T07:55:08;39.20;;;22.57;;
60060;SDS011;45933;51.336;12.612;2022-11-18T07:57:34;36.10;;;21.83;;
60060;SDS011;45933;51.336;12.612;2022-11-18T07:59:59;33.60;;;21.07;;
60060;SDS011;45933;51.336;12.612;2022-11-18T08:02:24;34.40;;;21.20;;
60060;SDS011;45933;51.336;12.612;2022-11-18T08:04:50;34.80;;;20.70;;
60060;SDS011;45933;51.336;12.612;2022-11-18T08:07:15;40.00;;;22.17;;
60060;SDS011;45933;51.336;12.612;2022-11-18T08:09:41;37.70;;;21.23;;
60060;SDS011;45933;51.336;12.612;2022-11-18T08:12:06;36.43;;;20.63;;
60060;SDS011;45933;51.336;12.612;2022-11-18T08:14:31;36.20;;;21.77;;
60060;SDS011;45933;51.336;12.612;2022-11-18T08:16:57;33.97;;;20.30;;
60060;SDS011;45933;51.336;12.612;2022-11-18T08:19:22;36.50;;;20.53;;
60060;SDS011;45933;51.336;12.612;2022-11-18T08:21:48;33.53;;;21.03;;
60060;SDS011;45933;51.336;12.612;2022-11-18T08:24:14;35.97;;;21.80;;
60060;SDS011;45933;51.336;12.612;2022-11-18T08:26:39;33.37;;;21.80;;
60060;SDS011;45933;51.336;12.612;2022-11-18T08:29:04;41.17;;;24.07;;
60060;SDS011;45933;51.336;12.612;2022-11-18T08:31:30;35.27;;;22.20;;
60060;SDS011;45933;51.336;12.612;2022-11-18T08:34:14;40.40;;;23.90;;
60060;SDS011;45933;51.336;12.612;2022-11-18T08:36:39;38.60;;;23.67;;
60060;SDS011;45933;51.336;12.612;2022-11-18T08:39:06;37.77;;;23.00;;
60060;SDS011;45933;51.336;12.612;2022-11-18T08:41:34;36.47;;;23.20;;
60060;SDS011;45933;51.336;12.612;2022-11-18T08:44:01;36.03;;;23.43;;
60060;SDS011;45933;51.336;12.612;2022-11-18T08:46:28;37.80;;;21.77;;
60060;SDS011;45933;51.336;12.612;2022-11-18T08:48:54;40.13;;;23.37;;
60060;SDS011;45933;51.336;12.612;2022-11-18T08:51:19;35.10;;;23.07;;
60060;SDS011;45933;51.336;12.612;2022-11-18T08:53:45;47.03;;;23.57;;
60060;SDS011;45933;51.336;12.612;2022-11-18T08:56:14;38.10;;;24.13;;
60060;SDS011;45933;51.336;12.612;2022-11-18T08:58:41;41.07;;;22.67;;
60060;SDS011;45933;51.336;12.612;2022-11-18T09:01:07;38.80;;;22.83;;
60060;SDS011;45933;51.336;12.612;2022-11-18T09:03:33;37.63;;;23.07;;
60060;SDS011;45933;51.336;12.612;2022-11-18T09:08:30;41.20;;;23.50;;
60060;SDS011;45933;51.336;12.612;2022-11-18T09:10:56;39.10;;;23.93;;
60060;SDS011;45933;51.336;12.612;2022-11-18T09:13:21;37.70;;;23.13;;
60060;SDS011;45933;51.336;12.612;2022-11-18T09:15:46;36.20;;;23.17;;
60060;SDS011;45933;51.336;12.612;2022-11-18T09:18:12;37.97;;;23.17;;
60060;SDS011;45933;51.336;12.612;2022-11-18T09:20:37;42.50;;;24.57;;
60060;SDS011;45933;51.336;12.612;2022-11-18T09:23:02;37.43;;;21.63;;
60060;SDS011;45933;51.336;12.612;2022-11-18T09:25:28;31.57;;;20.47;;
60060;SDS011;45933;51.336;12.612;2022-11-18T09:27:53;32.10;;;19.13;;
60060;SDS011;45933;51.336;12.612;2022-11-18T09:30:19;32.33;;;20.50;;
60060;SDS011;45933;51.336;12.612;2022-11-18T09:32:44;30.93;;;20.03;;
60060;SDS011;45933;51.336;12.612;2022-11-18T09:35:10;31.83;;;20.43;;
60060;SDS011;45933;51.336;12.612;2022-11-18T09:37:35;37.57;;;22.10;;
60060;SDS011;45933;51.336;12.612;2022-11-18T09:40:01;37.00;;;22.30;;
60060;SDS011;45933;51.336;12.612;2022-11-18T09:42:38;36.07;;;22.67;;
60060;SDS011;45933;51.336;12.612;2022-11-18T09:45:21;34.30;;;21.93;;
60060;SDS011;45933;51.336;12.612;2022-11-18T09:47:54;36.33;;;22.07;;
60060;SDS011;45933;51.336;12.612;2022-11-18T09:50:22;38.53;;;23.67;;
60060;SDS011;45933;51.336;12.612;2022-11-18T09:52:51;44.77;;;25.83;;
60060;SDS011;45933;51.336;12.612;2022-11-18T09:55:28;36.83;;;24.37;;
60060;SDS011;45933;51.336;12.612;2022-11-18T09:57:54;41.17;;;25.30;;
60060;SDS011;45933;51.336;12.612;2022-11-18T10:00:22;44.87;;;25.10;;
60060;SDS011;45933;51.336;12.612;2022-11-18T10:02:51;41.10;;;25.27;;
60060;SDS011;45933;51.336;12.612;2022-11-18T10:05:23;41.73;;;25.30;;
60060;SDS011;45933;51.336;12.612;2022-11-18T10:10:26;38.03;;;24.10;;
60060;SDS011;45933;51.336;12.612;2022-11-18T10:13:03;37.60;;;24.17;;
60060;SDS011;45933;51.336;12.612;2022-11-18T10:15:44;38.63;;;24.07;;
60060;SDS011;45933;51.336;12.612;2022-11-18T10:18:26;35.87;;;23.17;;
60060;SDS011;45933;51.336;12.612;2022-11-18T10:23:53;35.47;;;23.23;;
60060;SDS011;45933;51.336;12.612;2022-11-18T10:26:38;33.87;;;22.43;;
60060;SDS011;45933;51.336;12.612;2022-11-18T10:29:05;31.43;;;21.90;;
60060;SDS011;45933;51.336;12.612;2022-11-18T10:31:38;34.77;;;22.60;;
60060;SDS011;45933;51.336;12.612;2022-11-18T10:34:17;34.23;;;22.53;;
60060;SDS011;45933;51.336;12.612;2022-11-18T10:36:44;31.87;;;21.27;;
60060;SDS011;45933;51.336;12.612;2022-11-18T10:39:22;29.50;;;20.27;;
60060;SDS011;45933;51.336;12.612;2022-11-18T10:41:48;31.23;;;20.30;;
60060;SDS011;45933;51.336;12.612;2022-11-18T10:49:51;29.97;;;20.67;;
60060;SDS011;45933;51.336;12.612;2022-11-18T10:52:17;32.87;;;20.43;;
60060;SDS011;45933;51.336;12.612;2022-11-18T10:54:43;29.23;;;20.00;;
60060;SDS011;45933;51.336;12.612;2022-11-18T10:57:29;29.83;;;19.83;;
60060;SDS011;45933;51.336;12.612;2022-11-18T10:59:57;31.37;;;18.70;;
60060;SDS011;45933;51.336;12.612;2022-11-18T11:02:31;24.97;;;18.20;;
60060;SDS011;45933;51.336;12.612;2022-11-18T11:05:00;24.63;;;17.03;;
60060;SDS011;45933;51.336;12.612;2022-11-18T11:07:28;24.30;;;16.77;;
60060;SDS011;45933;51.336;12.612;2022-11-18T11:18:11;20.20;;;14.73;;
60060;SDS011;45933;51.336;12.612;2022-11-18T11:21:01;20.17;;;14.83;;
60060;SDS011;45933;51.336;12.612;2022-11-18T11:23:33;18.83;;;13.83;;
60060;SDS011;45933;51.336;12.612;2022-11-18T11:26:21;16.60;;;11.90;;
60060;SDS011;45933;51.336;12.612;2022-11-18T11:34:17;15.57;;;10.67;;
60060;SDS011;45933;51.336;12.612;2022-11-18T11:37:08;14.30;;;10.30;;
60060;SDS011;45933;51.336;12.612;2022-11-18T11:40:00;13.10;;;10.47;;
60060;SDS011;45933;51.336;12.612;2022-11-18T11:45:35;13.53;;;10.17;;
60060;SDS011;45933;51.336;12.612;2022-11-18T11:51:44;14.77;;;11.43;;
60060;SDS011;45933;51.336;12.612;2022-11-18T11:54:31;17.13;;;11.73;;
60060;SDS011;45933;51.336;12.612;2022-11-18T12:00:08;13.23;;;10.73;;
60060;SDS011;45933;51.336;12.612;2022-11-18T12:05:34;14.37;;;11.57;;
60060;SDS011;45933;51.336;12.612;2022-11-18T12:08:16;13.63;;;10.60;;
60060;SDS011;45933;51.336;12.612;2022-11-18T12:16:23;19.27;;;15.30;;
60060;SDS011;45933;51.336;12.612;2022-11-18T12:19:18;21.27;;;16.27;;
60060;SDS011;45933;51.336;12.612;2022-11-18T12:26:42;21.70;;;16.20;;
60060;SDS011;45933;51.336;12.612;2022-11-18T12:32:01;22.07;;;15.23;;
60060;SDS011;45933;51.336;12.612;2022-11-18T12:34:28;20.13;;;15.63;;
60060;SDS011;45933;51.336;12.612;2022-11-18T12:39:53;19.83;;;15.27;;
60060;SDS011;45933;51.336;12.612;2022-11-18T12:42:43;19.60;;;15.17;;
60060;SDS011;45933;51.336;12.612;2022-11-18T12:50:53;20.63;;;16.13;;
60060;SDS011;45933;51.336;12.612;2022-11-18T12:58:51;21.17;;;16.03;;
60060;SDS011;45933;51.336;12.612;2022-11-18T13:01:19;21.90;;;16.20;;
60060;SDS011;45933;51.336;12.612;2022-11-18T13:03:46;21.07;;;16.10;;
60060;SDS011;45933;51.336;12.612;2022-11-18T13:06:18;21.33;;;17.00;;
60060;SDS011;45933;51.336;12.612;2022-11-18T13:09:04;22.27;;;16.57;;
60060;SDS011;45933;51.336;12.612;2022-11-18T13:12:21;22.00;;;16.20;;
60060;SDS011;45933;51.336;12.612;2022-11-18T13:14:43;23.97;;;17.50;;
60060;SDS011;45933;51.336;12.612;2022-11-18T13:17:32;23.67;;;17.97;;
60060;SDS011;45933;51.336;12.612;2022-11-18T13:20:22;26.10;;;17.67;;
60060;SDS011;45933;51.336;12.612;2022-11-18T13:25:46;26.07;;;18.63;;
60060;SDS011;45933;51.336;12.612;2022-11-18T13:31:13;25.30;;;19.63;;
60060;SDS011;45933;51.336;12.612;2022-11-18T13:33:51;27.50;;;20.17;;
60060;SDS011;45933;51.336;12.612;2022-11-18T13:36:17;29.63;;;20.40;;
60060;SDS011;45933;51.336;12.612;2022-11-18T13:38:57;25.97;;;19.60;;
60060;SDS011;45933;51.336;12.612;2022-11-18T13:41:28;28.17;;;21.07;;
60060;SDS011;45933;51.336;12.612;2022-11-18T13:44:23;27.47;;;20.63;;
60060;SDS011;45933;51.336;12.612;2022-11-18T13:46:55;27.30;;;21.00;;
60060;SDS011;45933;51.336;12.612;2022-11-18T13:49:40;30.07;;;22.47;;
60060;SDS011;45933;51.336;12.612;2022-11-18T13:52:32;28.10;;;21.57;;
60060;SDS011;45933;51.336;12.612;2022-11-18T13:55:20;31.03;;;23.00;;
60060;SDS011;45933;51.336;12.612;2022-11-18T13:57:49;30.10;;;21.50;;
60060;SDS011;45933;51.336;12.612;2022-11-18T14:00:24;31.17;;;23.00;;
60060;SDS011;45933;51.336;12.612;2022-11-18T14:03:02;32.10;;;23.37;;
60060;SDS011;45933;51.336;12.612;2022-11-18T14:05:30;33.70;;;24.97;;
60060;SDS011;45933;51.336;12.612;2022-11-18T14:08:00;30.30;;;22.53;;
60060;SDS011;45933;51.336;12.612;2022-11-18T14:10:29;31.60;;;23.63;;
60060;SDS011;45933;51.336;12.612;2022-11-18T14:13:22;33.70;;;23.60;;
60060;SDS011;45933;51.336;12.612;2022-11-18T14:15:50;34.80;;;25.57;;
60060;SDS011;45933;51.336;12.612;2022-11-18T14:18:38;35.03;;;24.40;;
60060;SDS011;45933;51.336;12.612;2022-11-18T14:21:09;40.47;;;28.03;;
60060;SDS011;45933;51.336;12.612;2022-11-18T14:23:36;37.57;;;27.13;;
60060;SDS011;45933;51.336;12.612;2022-11-18T14:26:07;33.47;;;24.80;;
60060;SDS011;45933;51.336;12.612;2022-11-18T14:28:33;33.63;;;24.17;;
60060;SDS011;45933;51.336;12.612;2022-11-18T14:31:19;34.03;;;24.47;;
60060;SDS011;45933;51.336;12.612;2022-11-18T14:36:42;33.77;;;24.20;;
60060;SDS011;45933;51.336;12.612;2022-11-18T14:39:12;31.50;;;23.47;;
60060;SDS011;45933;51.336;12.612;2022-11-18T14:41:49;32.87;;;23.47;;
60060;SDS011;45933;51.336;12.612;2022-11-18T14:44:19;37.83;;;25.63;;
60060;SDS011;45933;51.336;12.612;2022-11-18T14:46:50;32.27;;;23.93;;
60060;SDS011;45933;51.336;12.612;2022-11-18T14:49:18;33.57;;;23.27;;
60060;SDS011;45933;51.336;12.612;2022-11-18T14:51:46;33.67;;;23.80;;
60060;SDS011;45933;51.336;12.612;2022-11-18T14:54:12;34.10;;;24.50;;
60060;SDS011;45933;51.336;12.612;2022-11-18T14:56:42;32.20;;;23.87;;
60060;SDS011;45933;51.336;12.612;2022-11-18T14:59:12;32.93;;;22.90;;
60060;SDS011;45933;51.336;12.612;2022-11-18T15:01:38;32.63;;;23.70;;
60060;SDS011;45933;51.336;12.612;2022-11-18T15:04:04;33.60;;;24.27;;
60060;SDS011;45933;51.336;12.612;2022-11-18T15:06:29;37.73;;;23.07;;
60060;SDS011;45933;51.336;12.612;2022-11-18T15:08:55;30.83;;;23.23;;
60060;SDS011;45933;51.336;12.612;2022-11-18T15:11:20;35.70;;;24.67;;
60060;SDS011;45933;51.336;12.612;2022-11-18T15:13:46;34.53;;;24.07;;
60060;SDS011;45933;51.336;12.612;2022-11-18T15:18:40;34.20;;;23.37;;
60060;SDS011;45933;51.336;12.612;2022-11-18T15:21:05;37.37;;;24.23;;
60060;SDS011;45933;51.336;12.612;2022-11-18T15:23:31;34.37;;;23.73;;
60060;SDS011;45933;51.336;12.612;2022-11-18T15:25:56;34.33;;;23.70;;
60060;SDS011;45933;51.336;12.612;2022-11-18T15:28:22;33.17;;;23.63;;
60060;SDS011;45933;51.336;12.612;2022-11-18T15:30:47;35.10;;;25.17;;
60060;SDS011;45933;51.336;12.612;2022-11-18T15:33:12;36.13;;;24.30;;
60060;SDS011;45933;51.336;12.612;2022-11-18T15:35:38;31.47;;;23.43;;
60060;SDS011;45933;51.336;12.612;2022-11-18T15:38:03;31.60;;;22.93;;
60060;SDS011;45933;51.336;12.612;2022-11-18T15:40:29;34.03;;;22.87;;
60060;SDS011;45933;51.336;12.612;2022-11-18T15:42:54;33.77;;;24.13;;
60060;SDS011;45933;51.336;12.612;2022-11-18T15:45:20;34.23;;;23.37;;
60060;SDS011;45933;51.336;12.612;2022-11-18T15:47:45;35.33;;;24.37;;
60060;SDS011;45933;51.336;12.612;2022-11-18T15:50:11;32.20;;;23.57;;
60060;SDS011;45933;51.336;12.612;2022-11-18T15:52:36;32.07;;;22.43;;
60060;SDS011;45933;51.336;12.612;2022-11-18T15:55:02;32.47;;;23.63;;
60060;SDS011;45933;51.336;12.612;2022-11-18T15:57:27;33.83;;;23.87;;
60060;SDS011;45933;51.336;12.612;2022-11-18T15:59:53;31.43;;;22.53;;
60060;SDS011;45933;51.336;12.612;2022-11-18T16:02:18;32.57;;;22.93;;
60060;SDS011;45933;51.336;12.612;2022-11-18T16:04:43;32.57;;;23.93;;
60060;SDS011;45933;51.336;12.612;2022-11-18T16:07:09;35.07;;;23.17;;
60060;SDS011;45933;51.336;12.612;2022-11-18T16:09:34;36.20;;;23.57;;